Terminal Aerodrome Forecast
Issued by NWS Cleveland, OH

Home | Current Version | Previous Version | Text Only | Print | Product List | Glossary Off
Versions: 1 2 3 4 5 6 7 8 9 10 11 12 13 14 15 16 17 18 19 20 21

000
FTUS41 KCLE 231100
TAFTOL
TAF
KTOL 231124Z 2312/2412 10006KT 5SM BR OVC025
      TEMPO 2312/2314 -SHRA OVC015
     FM231400 16005KT 6SM BR OVC015
     FM240600 06002KT 2SM -SHRA BR OVC007
     FM240900 06005KT 2SM -SHRA BR OVC004=

USA.gov is the U.S. government's official web portal to all federal, state and local government web resources and services.